Time;durP1;ratioP1;P1;durP2;ratioP2;P2;SDS_P1;SDS_P2;PMS_P1;PMS_P2;Temp;Humidity;BMP_temperature;BMP_pressure;BME280_temperature;BME280_humidity;BME280_pressure;Samples;Min_cycle;Max_cycle;Signal;HPM_P1;HPM_P2
2021/01/03 00:00:16;;;;;;;7.03;3.75;;;3.30;99.90;;;;;;5055977;28;20310;-71
2021/01/03 00:02:42;;;;;;;9.02;4.97;;;3.20;99.90;;;;;;5056348;28;20286;-71
2021/01/03 00:05:09;;;;;;;8.77;3.85;;;3.20;99.90;;;;;;5056195;28;20211;-71
2021/01/03 00:07:36;;;;;;;8.57;4.30;;;3.10;99.90;;;;;;5055698;28;20767;-70
2021/01/03 00:10:04;;;;;;;8.77;4.80;;;3.20;99.90;;;;;;5055968;28;20286;-71
2021/01/03 00:12:30;;;;;;;7.38;3.90;;;3.00;99.90;;;;;;5056065;28;20211;-71
2021/01/03 00:14:58;;;;;;;7.85;4.30;;;2.80;99.90;;;;;;5056045;28;20206;-71
2021/01/03 00:17:24;;;;;;;6.82;3.90;;;2.70;99.90;;;;;;5055786;28;20310;-70
2021/01/03 00:19:50;;;;;;;3.72;2.78;;;2.80;99.90;;;;;;5055908;28;20227;-70
2021/01/03 00:22:16;;;;;;;9.88;4.60;;;2.80;99.90;;;;;;5055662;28;20679;-71
2021/01/03 00:24:43;;;;;;;10.38;4.65;;;2.80;99.90;;;;;;5055889;28;20302;-71
2021/01/03 00:27:09;;;;;;;6.03;3.53;;;2.90;99.90;;;;;;5055349;28;20588;-71
2021/01/03 00:29:35;;;;;;;7.05;3.65;;;3.00;99.90;;;;;;5055869;28;20276;-71
2021/01/03 00:32:03;;;;;;;7.35;4.15;;;3.00;99.90;;;;;;5055708;28;20294;-71
2021/01/03 00:34:29;;;;;;;8.38;4.25;;;3.00;99.90;;;;;;5055587;28;20229;-71
2021/01/03 00:36:56;;;;;;;6.32;3.72;;;2.90;99.90;;;;;;5055429;28;20214;-71
2021/01/03 00:39:22;;;;;;;5.75;3.78;;;2.90;99.90;;;;;;5055274;28;20226;-71
2021/01/03 00:41:49;;;;;;;9.27;5.55;;;3.00;99.90;;;;;;5055553;28;20211;-71
2021/01/03 00:44:16;;;;;;;6.25;3.70;;;3.00;99.90;;;;;;5055402;28;20210;-71
2021/01/03 00:46:42;;;;;;;6.72;3.90;;;3.00;99.90;;;;;;5055147;28;20203;-70
2021/01/03 00:49:10;;;;;;;4.80;2.95;;;2.90;99.90;;;;;;5055039;28;20298;-71
2021/01/03 00:51:36;;;;;;;5.43;3.10;;;2.90;99.90;;;;;;5055384;28;20409;-71
2021/01/03 00:54:03;;;;;;;7.05;3.70;;;2.70;99.90;;;;;;5055308;28;20207;-71
2021/01/03 00:56:29;;;;;;;5.03;3.13;;;2.80;99.90;;;;;;5054963;28;20570;-71
2021/01/03 00:58:56;;;;;;;7.05;3.85;;;2.90;99.90;;;;;;5055034;28;20249;-71
2021/01/03 01:01:23;;;;;;;7.05;4.75;;;2.90;99.90;;;;;;5054166;28;20213;-71
2021/01/03 01:03:49;;;;;;;9.48;4.20;;;2.80;99.90;;;;;;5054805;28;20207;-71
2021/01/03 01:06:16;;;;;;;3.72;2.72;;;2.80;99.90;;;;;;5054928;28;20348;-70
2021/01/03 01:08:43;;;;;;;9.38;3.40;;;2.90;99.90;;;;;;5054734;28;20727;-71
2021/01/03 01:11:09;;;;;;;7.95;3.78;;;3.00;99.90;;;;;;5054971;28;20294;-71
2021/01/03 01:13:36;;;;;;;8.80;4.10;;;3.10;99.90;;;;;;5054874;28;20734;-71
2021/01/03 01:16:05;;;;;;;8.15;3.90;;;3.20;99.90;;;;;;5054669;28;20636;-70
2021/01/03 01:18:31;;;;;;;5.10;4.00;;;3.30;99.90;;;;;;5054726;28;20223;-71
2021/01/03 01:20:58;;;;;;;4.72;3.60;;;3.10;99.90;;;;;;5054601;28;20306;-70
2021/01/03 01:23:25;;;;;;;6.97;3.55;;;3.00;99.90;;;;;;5054744;28;20298;-71
2021/01/03 01:25:51;;;;;;;9.35;3.47;;;3.10;99.90;;;;;;5054497;28;20297;-70
2021/01/03 01:28:18;;;;;;;6.72;4.47;;;3.20;99.90;;;;;;5054289;28;20231;-71
2021/01/03 01:30:44;;;;;;;7.07;3.58;;;3.20;99.90;;;;;;5054597;28;20606;-70
2021/01/03 01:33:10;;;;;;;8.05;4.28;;;3.30;99.90;;;;;;5054549;28;20305;-71
2021/01/03 01:35:37;;;;;;;9.68;4.50;;;3.30;99.90;;;;;;5054144;28;20676;-70
2021/01/03 01:38:04;;;;;;;7.10;4.40;;;3.30;99.90;;;;;;5054402;28;20310;-71
2021/01/03 01:40:34;;;;;;;8.93;4.10;;;3.10;99.90;;;;;;5054072;28;20230;-70
2021/01/03 01:43:01;;;;;;;6.15;3.20;;;2.90;99.90;;;;;;5054325;28;20199;-71
2021/01/03 01:45:29;;;;;;;7.47;3.70;;;2.90;99.90;;;;;;5054218;28;20203;-70
2021/01/03 01:48:00;;;;;;;8.32;3.85;;;2.80;99.90;;;;;;5054294;28;20224;-71
2021/01/03 01:50:34;;;;;;;8.93;4.65;;;2.80;99.90;;;;;;5054271;28;20210;-71
2021/01/03 01:53:02;;;;;;;9.90;4.78;;;2.60;99.90;;;;;;5054256;28;20261;-71
2021/01/03 01:55:35;;;;;;;5.25;3.05;;;2.50;99.90;;;;;;5053747;28;20208;-70
2021/01/03 01:58:10;;;;;;;9.85;5.18;;;2.60;99.90;;;;;;5054145;28;20238;-70
2021/01/03 02:00:39;;;;;;;8.30;4.15;;;2.80;99.90;;;;;;5054045;28;20222;-71
2021/01/03 02:03:12;;;;;;;9.02;4.60;;;2.90;99.90;;;;;;5053888;28;20665;-70
2021/01/03 02:05:45;;;;;;;6.97;4.20;;;2.80;99.90;;;;;;5053853;28;20211;-70
2021/01/03 02:08:19;;;;;;;10.50;4.32;;;2.60;99.90;;;;;;5053668;28;20233;-70
2021/01/03 02:10:49;;;;;;;8.90;5.22;;;2.70;99.90;;;;;;5053663;28;20204;-70
2021/01/03 02:13:21;;;;;;;7.88;4.30;;;2.80;99.90;;;;;;5053562;28;20804;-70
2021/01/03 02:15:49;;;;;;;5.85;3.80;;;2.90;99.90;;;;;;5053601;28;20638;-70
2021/01/03 02:18:16;;;;;;;9.65;4.63;;;3.00;99.90;;;;;;5053763;28;20219;-71
2021/01/03 02:20:58;;;;;;;5.82;4.15;;;3.10;99.90;;;;;;5053670;28;20226;-71
2021/01/03 02:23:36;;;;;;;10.35;4.70;;;3.20;99.90;;;;;;5053545;28;20722;-71
2021/01/03 02:26:05;;;;;;;6.40;4.43;;;3.20;99.90;;;;;;5053520;28;20199;-71
2021/01/03 02:28:35;;;;;;;7.40;4.28;;;3.30;99.90;;;;;;5053320;28;20603;-71
2021/01/03 02:31:02;;;;;;;9.07;4.20;;;3.40;99.90;;;;;;5053696;28;20187;-71
2021/01/03 02:33:36;;;;;;;10.52;5.53;;;3.40;99.90;;;;;;5053595;28;20584;-71
2021/01/03 02:36:07;;;;;;;6.32;4.50;;;3.30;99.90;;;;;;5053415;28;20206;-70
2021/01/03 02:38:38;;;;;;;6.72;4.00;;;3.40;99.90;;;;;;5053483;28;20357;-71
2021/01/03 02:41:06;;;;;;;9.90;5.15;;;3.30;99.90;;;;;;5053734;28;20538;-71
2021/01/03 02:43:32;;;;;;;8.98;5.10;;;3.30;99.90;;;;;;5053442;28;20561;-71
2021/01/03 02:45:58;;;;;;;8.60;4.95;;;3.20;99.90;;;;;;5053340;28;20295;-70
2021/01/03 02:48:25;;;;;;;10.02;5.00;;;3.10;99.90;;;;;;5053156;28;20264;-71
2021/01/03 02:50:52;;;;;;;7.07;4.82;;;2.90;99.90;;;;;;5053431;28;20294;-71
2021/01/03 02:53:20;;;;;;;14.35;6.10;;;2.80;99.90;;;;;;5053286;28;20673;-70
2021/01/03 02:55:47;;;;;;;10.48;4.22;;;2.70;99.90;;;;;;5053074;28;20291;-70
2021/01/03 02:58:14;;;;;;;10.73;5.65;;;2.60;99.90;;;;;;5053148;28;20318;-70
2021/01/03 03:00:40;;;;;;;11.45;5.43;;;2.50;99.90;;;;;;5053271;28;20223;-70
2021/01/03 03:03:08;;;;;;;10.75;4.90;;;2.30;99.90;;;;;;5053329;28;20736;-71
2021/01/03 03:05:35;;;;;;;10.15;5.18;;;2.40;99.90;;;;;;5053105;28;20199;-70
2021/01/03 03:08:02;;;;;;;7.63;5.00;;;2.40;99.90;;;;;;5053169;28;20219;-70
2021/01/03 03:10:29;;;;;;;10.95;4.65;;;2.40;99.90;;;;;;5053180;28;20199;-71
2021/01/03 03:12:58;;;;;;;10.82;5.22;;;2.40;99.90;;;;;;5053177;28;20200;-71
2021/01/03 03:15:26;;;;;;;8.70;4.40;;;2.40;99.90;;;;;;5052996;28;20204;-71
2021/01/03 03:17:53;;;;;;;12.60;5.22;;;2.30;99.90;;;;;;5052999;28;20224;-71
2021/01/03 03:20:20;;;;;;;8.75;4.25;;;2.10;99.90;;;;;;5053058;28;20223;-71
2021/01/03 03:22:48;;;;;;;8.68;5.03;;;2.10;99.90;;;;;;5053238;28;20225;-71
2021/01/03 03:25:16;;;;;;;11.93;4.20;;;2.10;99.90;;;;;;5056890;28;20207;-71
2021/01/03 03:27:42;;;;;;;8.80;4.72;;;2.10;99.90;;;;;;5056326;28;20231;-71
2021/01/03 03:30:11;;;;;;;11.68;5.45;;;2.20;99.90;;;;;;5056907;28;20286;-71
2021/01/03 03:32:38;;;;;;;9.50;4.75;;;2.10;99.90;;;;;;5056843;28;20203;-71
2021/01/03 03:35:06;;;;;;;13.43;6.07;;;2.20;99.90;;;;;;5056829;28;20199;-71
2021/01/03 03:37:32;;;;;;;9.57;4.95;;;2.30;99.90;;;;;;5056460;28;20227;-70
2021/01/03 03:39:58;;;;;;;11.95;5.95;;;2.20;99.90;;;;;;5056631;28;20322;-70
2021/01/03 03:42:25;;;;;;;9.32;5.38;;;2.20;99.90;;;;;;5056692;28;20204;-71
2021/01/03 03:44:51;;;;;;;10.50;5.35;;;2.20;99.90;;;;;;5056654;28;20206;-71
2021/01/03 03:47:17;;;;;;;12.35;5.18;;;2.30;99.90;;;;;;5056344;28;20230;-71
2021/01/03 03:49:45;;;;;;;13.13;6.60;;;2.40;99.90;;;;;;5056635;28;20286;-71
2021/01/03 03:52:11;;;;;;;9.40;5.03;;;2.60;99.90;;;;;;5056474;28;20206;-71
2021/01/03 03:54:37;;;;;;;13.63;6.13;;;2.60;99.90;;;;;;5056502;28;20210;-71
2021/01/03 03:57:05;;;;;;;10.27;5.30;;;2.60;99.90;;;;;;5055994;28;20695;-70
2021/01/03 03:59:32;;;;;;;8.85;4.80;;;2.40;99.90;;;;;;5056384;28;20577;-71
2021/01/03 04:01:58;;;;;;;9.27;5.43;;;2.40;99.90;;;;;;5056334;28;20603;-70
2021/01/03 04:04:26;;;;;;;9.63;5.15;;;2.50;99.90;;;;;;5056184;28;20290;-71
2021/01/03 04:06:53;;;;;;;13.55;6.78;;;2.50;99.90;;;;;;5055844;28;20203;-70
2021/01/03 04:09:20;;;;;;;13.30;5.90;;;2.30;99.90;;;;;;5055869;28;20216;-71
2021/01/03 04:11:48;;;;;;;12.40;5.95;;;2.50;99.90;;;;;;5056096;28;20314;-70
2021/01/03 04:14:17;;;;;;;14.90;6.63;;;2.50;99.90;;;;;;5055943;28;20669;-70
2021/01/03 04:16:47;;;;;;;11.20;5.28;;;2.30;99.90;;;;;;5055752;28;20608;-70
2021/01/03 04:19:14;;;;;;;11.43;4.65;;;2.30;99.90;;;;;;5055587;28;20708;-70
2021/01/03 04:21:41;;;;;;;12.90;6.50;;;2.20;99.90;;;;;;5055901;28;20200;-70
2021/01/03 04:24:09;;;;;;;11.75;5.78;;;2.20;99.90;;;;;;5055937;28;20294;-71
2021/01/03 04:26:36;;;;;;;13.13;6.13;;;2.00;99.90;;;;;;5055621;28;20245;-71
2021/01/03 04:29:02;;;;;;;10.85;5.95;;;1.90;99.90;;;;;;5055788;28;20215;-70
2021/01/03 04:31:28;;;;;;;11.70;4.63;;;1.80;99.90;;;;;;5055759;28;20208;-70
2021/01/03 04:33:55;;;;;;;10.65;6.22;;;1.90;99.90;;;;;;5055144;28;20210;-71
2021/01/03 04:36:21;;;;;;;13.20;5.00;;;2.00;99.90;;;;;;5055495;28;20203;-70
2021/01/03 04:38:48;;;;;;;14.45;6.95;;;2.10;99.90;;;;;;5055250;28;20777;-71
2021/01/03 04:41:23;;;;;;;9.23;5.45;;;2.20;99.90;;;;;;5055598;28;20254;-70
2021/01/03 04:43:50;;;;;;;14.55;5.50;;;2.00;99.90;;;;;;5055323;28;20203;-70
2021/01/03 04:46:21;;;;;;;11.02;6.07;;;2.20;99.90;;;;;;5055263;28;20260;-70
2021/01/03 04:48:51;;;;;;;8.55;4.95;;;2.30;99.90;;;;;;5055247;28;20352;-71
2021/01/03 04:51:28;;;;;;;13.73;5.65;;;2.30;99.90;;;;;;5055658;28;20298;-71
2021/01/03 04:54:08;;;;;;;12.52;4.80;;;2.40;99.90;;;;;;5055379;28;20204;-71
2021/01/03 04:56:51;;;;;;;14.60;6.50;;;2.50;99.90;;;;;;5055039;28;20207;-70
2021/01/03 04:59:27;;;;;;;10.98;4.85;;;2.60;99.90;;;;;;5055167;28;20227;-70
2021/01/03 05:02:27;;;;;;;10.88;4.82;;;2.60;99.90;;;;;;5055275;28;20218;-71
2021/01/03 05:05:15;;;;;;;11.20;5.80;;;2.60;99.90;;;;;;5055155;28;20203;-71
2021/01/03 05:07:44;;;;;;;13.52;5.38;;;2.30;99.90;;;;;;5054918;28;20232;-70
2021/01/03 05:10:15;;;;;;;12.35;5.43;;;2.10;99.90;;;;;;5055028;28;20195;-70
2021/01/03 05:12:54;;;;;;;15.45;5.70;;;2.00;99.90;;;;;;5055010;28;20212;-71
2021/01/03 05:15:24;;;;;;;17.35;6.78;;;2.00;99.90;;;;;;5054959;28;20290;-71
2021/01/03 05:17:51;;;;;;;9.88;4.40;;;1.90;99.90;;;;;;5054616;28;20230;-71
2021/01/03 05:20:18;;;;;;;12.20;6.03;;;2.00;99.90;;;;;;5054777;28;20235;-70
2021/01/03 05:22:44;;;;;;;10.38;5.10;;;2.10;99.90;;;;;;5054782;28;20272;-71
2021/01/03 05:25:13;;;;;;;11.70;5.32;;;2.10;99.90;;;;;;5054636;28;20280;-71
2021/01/03 05:27:41;;;;;;;8.93;5.82;;;2.30;99.90;;;;;;5054201;28;20231;-71
2021/01/03 05:30:20;;;;;;;11.23;5.10;;;2.50;99.90;;;;;;5054697;28;20209;-70
2021/01/03 05:32:47;;;;;;;11.52;5.57;;;2.50;99.90;;;;;;5054650;28;20207;-70
2021/01/03 05:35:22;;;;;;;12.85;5.63;;;2.40;99.90;;;;;;5054572;28;20204;-71
2021/01/03 05:37:51;;;;;;;8.70;4.78;;;2.40;99.90;;;;;;5054307;28;20614;-71
2021/01/03 05:40:23;;;;;;;8.75;5.55;;;2.50;99.90;;;;;;5054470;28;20233;-70
2021/01/03 05:43:03;;;;;;;14.93;5.45;;;2.40;99.90;;;;;;5054406;28;20207;-70
2021/01/03 05:45:31;;;;;;;11.82;5.88;;;2.40;99.90;;;;;;5053845;28;20207;-71
2021/01/03 05:48:00;;;;;;;11.57;5.68;;;2.50;99.90;;;;;;5054093;28;20281;-70
2021/01/03 05:50:31;;;;;;;10.55;5.22;;;2.60;99.90;;;;;;5054324;28;20291;-71
2021/01/03 05:53:05;;;;;;;11.98;5.40;;;2.70;99.90;;;;;;5054266;28;20752;-71
2021/01/03 05:55:32;;;;;;;11.40;5.30;;;2.80;99.90;;;;;;5054055;28;20623;-71
2021/01/03 05:58:17;;;;;;;13.18;5.07;;;2.80;99.90;;;;;;5054130;28;20234;-70
2021/01/03 06:00:44;;;;;;;13.52;6.28;;;2.70;99.90;;;;;;5054083;28;20559;-71
2021/01/03 06:03:24;;;;;;;10.75;4.45;;;2.70;99.90;;;;;;5054028;28;20294;-71
2021/01/03 06:05:53;;;;;;;8.07;5.20;;;2.60;99.90;;;;;;5053786;28;20290;-71
2021/01/03 06:08:23;;;;;;;12.95;4.90;;;2.50;99.90;;;;;;5053961;28;20230;-71
2021/01/03 06:10:51;;;;;;;10.18;5.30;;;2.50;99.90;;;;;;5053751;28;20653;-71
2021/01/03 06:13:20;;;;;;;12.05;5.28;;;2.30;99.90;;;;;;5053876;28;20204;-71
2021/01/03 06:15:52;;;;;;;6.53;3.92;;;2.40;99.90;;;;;;5053584;28;20203;-71
2021/01/03 06:18:30;;;;;;;12.45;5.25;;;2.40;99.90;;;;;;5053725;28;20227;-71
2021/01/03 06:20:59;;;;;;;13.77;6.35;;;2.30;99.90;;;;;;5053556;28;20223;-70
2021/01/03 06:23:31;;;;;;;10.38;6.15;;;2.20;99.90;;;;;;5054073;28;20207;-70
2021/01/03 06:26:04;;;;;;;14.00;4.88;;;1.90;99.90;;;;;;5053440;28;20669;-70
2021/01/03 06:28:47;;;;;;;12.40;6.15;;;1.90;99.90;;;;;;5053313;28;20234;-70
2021/01/03 06:31:39;;;;;;;11.95;5.45;;;2.00;99.90;;;;;;5052460;28;20203;-71
2021/01/03 06:34:14;;;;;;;7.03;4.40;;;2.10;99.90;;;;;;5053613;28;20203;-71
2021/01/03 06:36:55;;;;;;;10.68;6.00;;;2.10;99.90;;;;;;5053176;28;20207;-71
2021/01/03 06:39:33;;;;;;;11.60;5.45;;;2.20;99.90;;;;;;5053499;28;20223;-71
2021/01/03 06:42:02;;;;;;;8.52;4.80;;;2.20;99.90;;;;;;5053358;28;20657;-71
2021/01/03 06:45:15;;;;;;;12.45;6.25;;;2.30;99.90;;;;;;5053508;28;20234;-70
2021/01/03 06:48:11;;;;;;;9.70;4.97;;;2.20;99.90;;;;;;5053034;28;20238;-70
2021/01/03 06:51:01;;;;;;;11.75;5.85;;;2.00;99.90;;;;;;5053458;28;20568;-71
2021/01/03 06:54:07;;;;;;;9.55;4.60;;;1.90;99.90;;;;;;5050934;28;20249;-71
2021/01/03 06:57:10;;;;;;;7.93;4.75;;;2.00;99.90;;;;;;5053262;28;20290;-70
2021/01/03 07:00:04;;;;;;;10.63;4.65;;;2.20;99.90;;;;;;5056663;28;20233;-72
2021/01/03 07:02:33;;;;;;;17.55;6.72;;;2.40;99.90;;;;;;5057469;28;20203;-71
2021/01/03 07:05:07;;;;;;;10.32;4.85;;;2.40;99.90;;;;;;5057274;28;20211;-71
2021/01/03 07:07:34;;;;;;;9.40;4.45;;;2.10;99.90;;;;;;5056978;28;20219;-70
2021/01/03 07:10:04;;;;;;;10.90;6.07;;;2.10;99.90;;;;;;5057056;28;20226;-71
2021/01/03 07:12:39;;;;;;;10.27;4.88;;;2.20;99.90;;;;;;5057264;28;20586;-71
2021/01/03 07:15:12;;;;;;;11.70;4.72;;;2.10;99.90;;;;;;5057250;28;20263;-70
2021/01/03 07:18:29;;;;;;;6.28;3.90;;;2.10;99.90;;;;;;5056660;28;20717;-70
2021/01/03 07:21:18;;;;;;;10.13;4.43;;;2.00;99.90;;;;;;5057098;28;20572;-71
2021/01/03 07:23:49;;;;;;;13.98;6.05;;;2.00;99.90;;;;;;5056902;28;20295;-71
2021/01/03 07:26:24;;;;;;;12.75;4.70;;;2.10;99.90;;;;;;5056695;28;20203;-71
2021/01/03 07:28:56;;;;;;;15.73;6.68;;;2.20;99.90;;;;;;5056842;28;20230;-71
2021/01/03 07:31:47;;;;;;;9.77;5.05;;;2.40;99.90;;;;;;5056936;28;20204;-70
2021/01/03 07:34:20;;;;;;;8.25;4.97;;;2.60;99.90;;;;;;5057171;28;20207;-70
2021/01/03 07:36:50;;;;;;;14.20;5.93;;;2.60;99.90;;;;;;5056563;28;20257;-71
2021/01/03 07:39:28;;;;;;;12.30;5.38;;;2.80;99.90;;;;;;5056729;28;20276;-71
2021/01/03 07:42:17;;;;;;;9.30;5.43;;;2.90;99.90;;;;;;5056760;28;20225;-71
2021/01/03 07:44:44;;;;;;;10.52;4.93;;;3.00;99.90;;;;;;5056727;28;20572;-71
2021/01/03 07:47:11;;;;;;;10.27;5.20;;;3.00;99.90;;;;;;5056362;28;20680;-70
2021/01/03 07:49:44;;;;;;;10.88;5.65;;;2.90;99.90;;;;;;5056664;28;20204;-71
2021/01/03 07:52:40;;;;;;;13.00;6.15;;;2.80;99.90;;;;;;5056425;28;20213;-71
2021/01/03 07:55:14;;;;;;;10.80;4.38;;;2.70;99.90;;;;;;5056603;28;20208;-71
2021/01/03 07:57:41;;;;;;;10.02;4.68;;;2.70;99.90;;;;;;5056091;28;20227;-71
2021/01/03 08:00:08;;;;;;;10.98;5.10;;;2.80;99.90;;;;;;5056466;28;20314;-70
2021/01/03 08:02:37;;;;;;;10.15;4.88;;;2.90;99.90;;;;;;5056129;28;20290;-71
2021/01/03 08:05:05;;;;;;;10.05;5.05;;;2.90;99.90;;;;;;5056143;28;20200;-71
2021/01/03 08:07:31;;;;;;;9.38;4.85;;;3.00;99.90;;;;;;5056001;28;20219;-71
2021/01/03 08:10:07;;;;;;;13.90;6.50;;;3.00;99.90;;;;;;5055742;28;20294;-71
2021/01/03 08:12:39;;;;;;;13.35;6.25;;;3.00;99.90;;;;;;5056119;28;20203;-71
2021/01/03 08:15:09;;;;;;;11.82;5.82;;;3.00;99.90;;;;;;5056157;28;20204;-71
2021/01/03 08:17:39;;;;;;;11.27;6.18;;;2.90;99.90;;;;;;5055928;28;20280;-71
2021/01/03 08:20:08;;;;;;;12.05;5.30;;;3.10;99.90;;;;;;5056508;28;20222;-71
2021/01/03 08:22:35;;;;;;;11.85;5.88;;;3.10;99.90;;;;;;5055728;28;20290;-71
2021/01/03 08:25:04;;;;;;;12.25;5.20;;;3.00;99.90;;;;;;5055980;28;20249;-71
2021/01/03 08:27:39;;;;;;;12.63;5.50;;;3.10;99.90;;;;;;5055496;28;20723;-72
2021/01/03 08:30:10;;;;;;;12.38;6.95;;;3.10;99.90;;;;;;5056084;28;20565;-71
2021/01/03 08:32:39;;;;;;;8.88;4.93;;;3.30;99.90;;;;;;5055837;28;20200;-71
2021/01/03 08:35:10;;;;;;;14.10;6.32;;;3.40;99.90;;;;;;5055789;28;20199;-71
2021/01/03 08:37:39;;;;;;;12.32;6.03;;;3.30;99.90;;;;;;5055269;28;20811;-71
2021/01/03 08:40:16;;;;;;;10.93;6.00;;;3.20;99.90;;;;;;5055693;28;20223;-71
2021/01/03 08:42:48;;;;;;;13.80;6.00;;;3.20;99.90;;;;;;5055698;28;20213;-71
2021/01/03 08:45:20;;;;;;;9.50;5.03;;;3.20;99.90;;;;;;5055703;28;20214;-71
2021/01/03 08:47:47;;;;;;;14.60;7.13;;;3.30;99.90;;;;;;5055206;28;20233;-71
2021/01/03 08:50:17;;;;;;;11.82;5.55;;;3.30;99.90;;;;;;5055150;28;20546;-71
2021/01/03 08:52:52;;;;;;;17.00;7.70;;;3.20;99.90;;;;;;5055547;28;20229;-71
2021/01/03 08:55:20;;;;;;;7.38;4.20;;;3.20;99.90;;;;;;5055416;28;20272;-71
2021/01/03 08:57:55;;;;;;;10.82;5.40;;;3.30;99.90;;;;;;5054933;28;20227;-71
2021/01/03 09:00:24;;;;;;;10.68;5.97;;;3.30;99.90;;;;;;5055055;28;20211;-71
2021/01/03 09:02:55;;;;;;;12.98;5.95;;;3.40;99.90;;;;;;5055227;28;20206;-71
2021/01/03 09:05:25;;;;;;;10.75;5.88;;;3.50;99.90;;;;;;5055241;28;20272;-71
2021/01/03 09:07:53;;;;;;;10.63;5.13;;;3.60;99.90;;;;;;5055242;28;20235;-70
2021/01/03 09:10:28;;;;;;;10.48;4.93;;;3.70;99.90;;;;;;5055213;28;20306;-71
2021/01/03 09:13:06;;;;;;;7.72;4.78;;;3.60;99.90;;;;;;5054983;28;20203;-71
2021/01/03 09:15:35;;;;;;;10.73;5.68;;;3.50;99.90;;;;;;5054853;28;20216;-71
2021/01/03 09:18:13;;;;;;;11.63;5.35;;;3.50;99.90;;;;;;5054846;28;20315;-71
2021/01/03 09:20:43;;;;;;;10.85;5.30;;;3.50;99.90;;;;;;5053984;28;20548;-71
2021/01/03 09:23:12;;;;;;;13.02;5.78;;;3.30;99.90;;;;;;5054775;28;20205;-71
2021/01/03 09:25:41;;;;;;;7.80;4.82;;;3.20;99.90;;;;;;5054508;28;20574;-71
2021/01/03 09:28:12;;;;;;;12.38;5.63;;;3.00;99.90;;;;;;5054404;28;20280;-71
2021/01/03 09:30:41;;;;;;;11.35;5.55;;;3.00;99.90;;;;;;5054749;28;20199;-71
2021/01/03 09:33:16;;;;;;;10.75;4.95;;;2.80;99.90;;;;;;5054440;28;20206;-71
2021/01/03 09:36:02;;;;;;;8.88;4.40;;;2.70;99.90;;;;;;5054331;28;20326;-71
2021/01/03 09:39:10;;;;;;;7.97;4.13;;;2.60;99.90;;;;;;5054557;28;20230;-71
2021/01/03 09:41:50;;;;;;;13.63;4.95;;;2.80;99.90;;;;;;5047021;28;20199;-71
2021/01/03 09:44:28;;;;;;;9.00;5.10;;;2.90;99.90;;;;;;5054405;28;20290;-71
2021/01/03 09:47:00;;;;;;;9.70;5.53;;;3.00;99.90;;;;;;5054239;28;20203;-71
2021/01/03 09:49:28;;;;;;;10.88;5.45;;;3.00;99.90;;;;;;5054501;28;20237;-71
2021/01/03 09:52:03;;;;;;;9.95;4.20;;;3.10;99.90;;;;;;5054741;28;20230;-71
2021/01/03 09:54:39;;;;;;;10.90;5.40;;;3.20;99.90;;;;;;5054388;28;20213;-72
2021/01/03 09:57:06;;;;;;;11.55;5.25;;;3.40;99.90;;;;;;5054299;28;20270;-71
2021/01/03 09:59:34;;;;;;;7.20;4.13;;;3.50;99.90;;;;;;5054090;28;20234;-71
2021/01/03 10:02:16;;;;;;;9.07;5.00;;;3.60;99.90;;;;;;5054222;28;20204;-71
2021/01/03 10:04:43;;;;;;;6.68;4.32;;;3.40;99.90;;;;;;5054128;28;20310;-71
2021/01/03 10:07:14;;;;;;;7.97;5.32;;;3.40;99.90;;;;;;5053767;28;20203;-70
2021/01/03 10:09:50;;;;;;;10.48;5.38;;;3.50;99.90;;;;;;5054049;28;20211;-71
2021/01/03 10:12:29;;;;;;;10.35;5.90;;;3.50;99.90;;;;;;5053971;28;20207;-71
2021/01/03 10:15:24;;;;;;;8.55;5.32;;;3.50;99.90;;;;;;5053969;28;20550;-72
2021/01/03 10:17:57;;;;;;;9.13;4.30;;;3.50;99.90;;;;;;5053587;28;20280;-70
2021/01/03 10:20:38;;;;;;;13.15;6.35;;;3.40;99.90;;;;;;5053895;28;20223;-71
2021/01/03 10:23:05;;;;;;;12.27;6.05;;;3.40;99.90;;;;;;5053842;28;20203;-71
2021/01/03 10:25:32;;;;;;;7.72;4.90;;;3.10;99.90;;;;;;5053509;28;20204;-70
2021/01/03 10:28:10;;;;;;;12.10;4.88;;;3.00;99.90;;;;;;5053396;28;20237;-71
2021/01/03 10:30:38;;;;;;;9.77;4.93;;;3.00;99.90;;;;;;5053732;28;20199;-71
2021/01/03 10:33:05;;;;;;;9.65;5.03;;;2.90;99.90;;;;;;5053228;28;20210;-71
2021/01/03 10:35:31;;;;;;;14.25;6.20;;;3.00;99.90;;;;;;5053295;28;20207;-71
2021/01/03 10:37:57;;;;;;;9.57;4.60;;;3.20;99.90;;;;;;5053415;28;20220;-71
2021/01/03 10:40:25;;;;;;;14.60;6.15;;;3.20;99.90;;;;;;5053562;28;20649;-71
2021/01/03 10:42:51;;;;;;;10.07;5.57;;;3.20;99.90;;;;;;5053481;28;20564;-71
2021/01/03 10:45:19;;;;;;;9.00;5.18;;;3.10;99.90;;;;;;5053539;28;20297;-71
2021/01/03 10:47:46;;;;;;;11.80;5.40;;;3.10;99.90;;;;;;5053263;28;20583;-70
2021/01/03 10:50:14;;;;;;;16.80;6.30;;;3.00;99.90;;;;;;5053223;28;20657;-71
2021/01/03 10:52:41;;;;;;;9.77;6.00;;;2.90;99.90;;;;;;5053410;28;20200;-71
2021/01/03 10:55:08;;;;;;;9.50;5.68;;;3.10;99.90;;;;;;5053378;28;20294;-71
2021/01/03 10:57:34;;;;;;;13.48;6.30;;;3.10;99.90;;;;;;5052898;28;20705;-71
2021/01/03 11:00:01;;;;;;;13.90;6.65;;;3.10;99.90;;;;;;5053278;28;20314;-71
2021/01/03 11:02:27;;;;;;;10.48;5.35;;;3.20;99.90;;;;;;5053471;28;20199;-71
2021/01/03 11:04:55;;;;;;;9.10;5.35;;;3.30;99.90;;;;;;5053438;28;20203;-71
2021/01/03 11:07:21;;;;;;;11.15;5.05;;;3.40;99.90;;;;;;5053172;28;20313;-71
2021/01/03 11:09:48;;;;;;;11.63;5.47;;;3.40;99.90;;;;;;5053351;28;20203;-71
2021/01/03 11:12:17;;;;;;;13.20;5.97;;;3.50;99.90;;;;;;5053040;28;20679;-71
2021/01/03 11:14:43;;;;;;;12.88;6.03;;;3.40;99.90;;;;;;5053318;28;20203;-72
2021/01/03 11:17:12;;;;;;;14.02;6.50;;;3.30;99.90;;;;;;5053059;28;20253;-71
2021/01/03 11:19:39;;;;;;;13.18;5.53;;;3.10;99.90;;;;;;5053227;28;20223;-71
2021/01/03 11:22:08;;;;;;;12.48;5.30;;;3.10;99.90;;;;;;5053135;28;20290;-71
2021/01/03 11:24:35;;;;;;;15.10;7.15;;;3.10;99.90;;;;;;5053159;28;20210;-71
2021/01/03 11:27:03;;;;;;;11.65;4.80;;;3.10;99.90;;;;;;5052847;28;20318;-72
2021/01/03 11:29:30;;;;;;;9.15;5.45;;;3.00;99.90;;;;;;5053200;28;20196;-71
2021/01/03 11:31:59;;;;;;;10.80;5.38;;;3.00;99.90;;;;;;5053129;28;20687;-71
2021/01/03 11:34:27;;;;;;;11.52;6.15;;;3.00;99.90;;;;;;5053087;28;20676;-71
2021/01/03 11:36:56;;;;;;;11.07;6.50;;;3.00;99.90;;;;;;5052633;28;20574;-71
2021/01/03 11:39:25;;;;;;;12.57;5.40;;;2.90;99.90;;;;;;5052613;28;20237;-71
2021/01/03 11:41:52;;;;;;;13.18;6.10;;;2.80;99.90;;;;;;5052794;28;20211;-71
2021/01/03 11:44:19;;;;;;;13.75;5.40;;;2.90;99.90;;;;;;5053877;28;20209;-71
2021/01/03 11:46:46;;;;;;;14.40;6.50;;;3.10;99.90;;;;;;5056570;28;20595;-71
2021/01/03 11:49:13;;;;;;;15.85;6.57;;;3.30;99.90;;;;;;5056310;28;20223;-70
2021/01/03 11:51:39;;;;;;;10.30;6.03;;;3.30;99.90;;;;;;5056451;28;20215;-70
2021/01/03 11:54:06;;;;;;;13.55;5.18;;;3.20;99.90;;;;;;5056251;28;20662;-70
2021/01/03 11:56:33;;;;;;;9.35;5.63;;;3.10;99.90;;;;;;5056322;28;20199;-70
2021/01/03 11:58:59;;;;;;;17.10;6.88;;;3.10;99.90;;;;;;5056112;28;20230;-70
2021/01/03 12:01:26;;;;;;;14.85;6.63;;;3.10;99.90;;;;;;5056267;28;20314;-71
2021/01/03 12:03:53;;;;;;;10.75;5.93;;;3.20;99.90;;;;;;5056300;28;20206;-71
2021/01/03 12:06:22;;;;;;;10.25;6.60;;;3.20;99.90;;;;;;5055782;28;20204;-71
2021/01/03 12:08:49;;;;;;;12.45;6.95;;;3.20;99.90;;;;;;5056290;28;20314;-70
2021/01/03 12:11:16;;;;;;;9.23;5.47;;;3.10;99.90;;;;;;5056165;28;20287;-70
2021/01/03 12:13:46;;;;;;;15.80;7.03;;;3.10;99.90;;;;;;5056132;28;20563;-71
2021/01/03 12:16:16;;;;;;;13.60;5.70;;;3.20;99.90;;;;;;5055834;28;20204;-70
2021/01/03 12:18:43;;;;;;;9.05;5.68;;;3.10;99.90;;;;;;5056447;28;20224;-70
2021/01/03 12:21:09;;;;;;;15.05;6.03;;;3.10;99.90;;;;;;5055869;28;20575;-71
2021/01/03 12:23:35;;;;;;;17.05;6.95;;;3.20;99.90;;;;;;5056011;28;20298;-71
2021/01/03 12:26:02;;;;;;;10.00;5.82;;;3.30;99.90;;;;;;5055643;28;20298;-70
2021/01/03 12:28:28;;;;;;;9.98;5.05;;;3.30;99.90;;;;;;5055671;28;20329;-71
2021/01/03 12:30:56;;;;;;;13.55;7.13;;;3.40;99.90;;;;;;5055872;28;20294;-70
2021/01/03 12:33:22;;;;;;;10.05;4.97;;;3.50;99.90;;;;;;5055734;28;20579;-71
2021/01/03 12:35:48;;;;;;;13.13;6.82;;;3.50;99.90;;;;;;5055560;28;20303;-71
2021/01/03 12:38:15;;;;;;;17.98;7.90;;;3.50;99.90;;;;;;5055707;28;20223;-71
2021/01/03 12:40:41;;;;;;;14.63;7.57;;;3.40;99.90;;;;;;5055446;28;20314;-71
2021/01/03 12:43:07;;;;;;;17.58;7.30;;;3.50;99.90;;;;;;5055564;28;20298;-71
2021/01/03 12:45:34;;;;;;;12.85;5.70;;;3.60;99.90;;;;;;5055397;28;20199;-71
2021/01/03 12:48:01;;;;;;;11.00;5.50;;;3.70;99.90;;;;;;5055514;28;20314;-71
2021/01/03 12:50:27;;;;;;;12.90;5.95;;;3.70;99.90;;;;;;5055428;28;20209;-71
2021/01/03 12:52:53;;;;;;;11.43;5.80;;;3.80;99.90;;;;;;5055462;28;20389;-72
2021/01/03 12:55:20;;;;;;;17.30;6.63;;;3.80;99.90;;;;;;5055346;28;20619;-71
2021/01/03 12:57:46;;;;;;;14.52;6.35;;;3.80;99.90;;;;;;5055062;28;20230;-71
2021/01/03 13:00:14;;;;;;;14.55;6.38;;;3.70;99.90;;;;;;5055195;28;20253;-71
2021/01/03 13:02:40;;;;;;;13.18;6.63;;;3.50;99.90;;;;;;5054079;28;20206;-71
2021/01/03 13:05:09;;;;;;;14.70;6.18;;;3.40;99.90;;;;;;5055294;28;20631;-71
2021/01/03 13:07:35;;;;;;;15.00;6.88;;;3.60;99.90;;;;;;5054793;28;20700;-71